Time;durP1;ratioP1;P1;durP2;ratioP2;P2;SDS_P1;SDS_P2;PMS_P1;PMS_P2;Temp;Humidity;BMP_temperature;BMP_pressure;BME280_temperature;BME280_humidity;BME280_pressure;Samples;Min_cycle;Max_cycle;Signal;HPM_P1;HPM_P2
2022/06/02 00:00:09;;;;;;;2.65;2.00;;;;;;;16.97;57.99;99786.91;4362404;32;33808;-66
2022/06/02 00:02:53;;;;;;;3.90;2.10;;;;;;;17.33;56.85;99777.47;4362410;32;33884;-65
2022/06/02 00:05:50;;;;;;;3.67;2.20;;;;;;;17.51;56.34;99773.13;4362401;32;34168;-72
2022/06/02 00:08:40;;;;;;;2.47;1.73;;;;;;;17.21;57.24;99784.19;4349931;32;34921;-66
2022/06/02 00:11:40;;;;;;;4.10;2.15;;;;;;;16.96;58.12;99781.75;4362269;32;33462;-66
2022/06/02 00:14:12;;;;;;;2.75;2.10;;;;;;;16.83;58.41;99785.97;4362392;32;34648;-67
2022/06/02 00:17:02;;;;;;;2.62;2.08;;;;;;;16.68;58.80;99775.94;4348573;32;33927;-67
2022/06/02 00:19:55;;;;;;;2.45;2.15;;;;;;;17.18;57.38;99773.81;4362255;32;34918;-67
2022/06/02 00:22:45;;;;;;;2.83;2.10;;;;;;;17.14;57.55;99770.00;4349023;32;33783;-70
2022/06/02 00:25:18;;;;;;;2.22;1.90;;;;;;;16.95;58.25;99766.38;4348955;32;34631;-66
2022/06/02 00:28:06;;;;;;;4.18;2.20;;;;;;;16.86;58.65;99768.12;4362199;32;34187;-71
2022/06/02 00:30:58;;;;;;;2.87;2.10;;;;;;;16.86;58.47;99779.09;4347976;32;34195;-70
2022/06/02 00:33:46;;;;;;;2.25;2.05;;;;;;;16.75;58.68;99764.66;4343485;32;34611;-66
2022/06/02 00:36:28;;;;;;;2.90;2.17;;;;;;;16.53;59.43;99765.13;4351676;32;34497;-66
2022/06/02 00:38:58;;;;;;;2.50;1.98;;;;;;;16.94;58.53;99764.75;4362038;32;34320;-67
2022/06/02 00:41:32;;;;;;;2.20;1.90;;;;;;;16.75;59.15;99754.50;4362012;32;35008;-66
2022/06/02 00:44:35;;;;;;;2.90;2.03;;;;;;;16.51;60.06;99757.19;4350395;32;35068;-66
2022/06/02 00:47:06;;;;;;;2.45;1.62;;;;;;;16.52;60.00;99755.28;4336352;32;33893;-66
2022/06/02 00:49:59;;;;;;;2.45;1.90;;;;;;;16.49;59.89;99764.87;4350609;32;35048;-66
2022/06/02 00:52:47;;;;;;;2.67;1.90;;;;;;;16.60;59.66;99762.88;4363629;32;35151;-66
2022/06/02 00:58:37;;;;;;;2.55;1.92;;;;;;;16.90;58.96;99750.81;4363616;32;33868;-67
2022/06/02 01:01:13;;;;;;;2.25;1.90;;;;;;;17.13;58.54;99762.09;4350588;32;34229;-71
2022/06/02 01:03:44;;;;;;;2.60;2.12;;;;;;;17.06;59.02;99754.19;4363769;32;33939;-68
2022/06/02 01:06:40;;;;;;;2.92;1.80;;;;;;;16.60;60.14;99752.72;4363724;32;34083;-67
2022/06/02 01:09:25;;;;;;;3.15;1.98;;;;;;;16.27;60.88;99748.13;4363625;32;33903;-67
2022/06/02 01:12:08;;;;;;;2.95;1.90;;;;;;;16.93;59.12;99743.94;4350217;32;34866;-67
2022/06/02 01:14:57;;;;;;;3.37;1.90;;;;;;;16.77;59.66;99744.06;4363456;32;34288;-70
2022/06/02 01:17:37;;;;;;;4.05;2.10;;;;;;;16.75;59.68;99738.06;4363588;32;34205;-68
2022/06/02 01:20:28;;;;;;;2.30;1.70;;;;;;;16.83;59.38;99749.53;4363762;32;33919;-67
2022/06/02 01:23:05;;;;;;;2.70;1.90;;;;;;;17.19;58.28;99748.03;4356258;32;34282;-70
2022/06/02 01:25:39;;;;;;;2.10;1.85;;;;;;;17.20;58.71;99748.84;4363649;32;33998;-70
2022/06/02 01:28:25;;;;;;;4.10;2.00;;;;;;;17.36;58.44;99741.22;4362986;32;33311;-70
2022/06/02 01:31:21;;;;;;;2.90;2.17;;;;;;;17.28;58.90;99731.75;4363757;32;34744;-67
2022/06/02 01:34:16;;;;;;;2.37;1.98;;;;;;;17.53;58.42;99725.09;4363537;32;34272;-67
2022/06/02 01:36:50;;;;;;;3.00;2.08;;;;;;;17.37;58.76;99720.94;4363642;32;33734;-67
2022/06/02 01:39:45;;;;;;;2.53;2.08;;;;;;;17.26;58.87;99719.44;4363741;32;33606;-66
2022/06/02 01:42:37;;;;;;;3.67;1.90;;;;;;;17.41;58.26;99720.03;4362920;32;33906;-67
2022/06/02 01:45:56;;;;;;;2.70;2.30;;;;;;;17.22;58.72;99725.50;4363082;32;34017;-67
2022/06/02 01:48:49;;;;;;;2.12;1.70;;;;;;;16.89;60.18;99727.28;4273663;33;34845;-66
2022/06/02 01:51:31;;;;;;;2.50;1.95;;;;;;;17.21;59.14;99731.25;4283908;33;33715;-68
2022/06/02 01:54:25;;;;;;;2.58;2.08;;;;;;;17.25;58.80;99737.81;4332649;33;33761;-68
2022/06/02 01:56:59;;;;;;;2.87;2.17;;;;;;;17.32;58.41;99726.47;4348970;32;34168;-67
2022/06/02 01:59:44;;;;;;;2.15;1.95;;;;;;;17.33;58.20;99715.22;4363461;32;34733;-66
2022/06/02 02:02:28;;;;;;;3.47;2.17;;;;;;;17.61;57.61;99716.19;4363498;32;33666;-66
2022/06/02 02:05:02;;;;;;;2.60;2.05;;;;;;;17.67;57.98;99716.94;4349691;32;33868;-65
2022/06/02 02:07:47;;;;;;;2.58;1.80;;;;;;;17.77;57.68;99726.94;4349893;32;34196;-66
2022/06/02 02:10:27;;;;;;;2.17;1.90;;;;;;;17.70;58.00;99715.53;4363201;32;34119;-67
2022/06/02 02:13:23;;;;;;;4.70;2.17;;;;;;;17.98;57.35;99725.56;4349994;32;33917;-67
2022/06/02 02:16:06;;;;;;;3.08;2.33;;;;;;;17.73;58.14;99724.00;4363417;32;33625;-67
2022/06/02 02:18:40;;;;;;;2.30;1.80;;;;;;;17.81;57.99;99726.06;4362464;32;33904;-67
2022/06/02 02:21:18;;;;;;;2.85;1.90;;;;;;;18.03;57.37;99728.22;4363360;32;34021;-71
2022/06/02 02:23:58;;;;;;;2.17;1.80;;;;;;;18.11;57.28;99737.72;4363001;32;33482;-66
2022/06/02 02:26:34;;;;;;;2.70;1.80;;;;;;;18.33;56.24;99741.75;4349624;32;33994;-66
2022/06/02 02:29:21;;;;;;;1.98;1.77;;;;;;;18.13;57.01;99757.44;4349815;32;33645;-67
2022/06/02 02:32:14;;;;;;;2.33;2.00;;;;;;;17.67;58.20;99774.56;4363438;32;34784;-71
2022/06/02 02:35:11;;;;;;;3.05;1.80;;;;;;;17.69;58.30;99777.00;4349786;32;33689;-67
2022/06/02 02:37:52;;;;;;;2.47;1.65;;;;;;;17.46;59.41;99795.97;4355421;32;34706;-69
2022/06/02 02:40:30;;;;;;;3.90;2.05;;;;;;;17.52;59.56;99802.22;4349726;32;33717;-67
2022/06/02 02:43:12;;;;;;;3.40;1.92;;;;;;;17.61;59.25;99808.66;4349537;32;33999;-67
2022/06/02 02:45:46;;;;;;;3.20;2.15;;;;;;;17.62;59.25;99810.28;4349585;32;34360;-67
2022/06/02 02:48:30;;;;;;;2.58;1.87;;;;;;;17.72;59.66;99825.81;4349582;32;32391;-70
2022/06/02 02:51:41;;;;;;;2.62;1.70;;;;;;;18.12;58.81;99835.47;4363018;32;34001;-67
2022/06/02 02:54:16;;;;;;;2.80;2.20;;;;;;;18.41;58.22;99878.41;4362933;32;34330;-71
2022/06/02 02:57:04;;;;;;;2.87;2.50;;;;;;;17.39;61.66;99883.28;4349372;32;33589;-66
2022/06/02 02:59:48;;;;;;;5.20;2.55;;;;;;;17.48;62.48;99865.06;4349597;32;34102;-66
2022/06/02 03:03:03;;;;;;;4.37;3.40;;;;;;;17.51;62.93;99878.19;4363003;32;34193;-68
2022/06/02 03:05:59;;;;;;;4.25;3.10;;;;;;;17.11;66.33;99874.78;4334903;33;35011;-68
2022/06/02 03:08:45;;;;;;;4.82;3.15;;;;;;;17.34;65.64;99878.66;4335294;33;33749;-70
2022/06/02 03:11:24;;;;;;;4.18;2.90;;;;;;;17.66;64.98;99892.84;4339453;32;33966;-69
2022/06/02 03:14:23;;;;;;;3.55;2.80;;;;;;;17.69;65.19;99892.25;4341648;32;35088;-70
2022/06/02 03:17:04;;;;;;;5.60;3.30;;;;;;;17.86;65.26;99889.91;4329760;32;34264;-69
2022/06/02 03:19:44;;;;;;;6.55;3.22;;;;;;;17.60;66.29;99894.81;4341306;32;34668;-69
2022/06/02 03:22:31;;;;;;;4.78;3.00;;;;;;;17.49;67.71;99891.38;4341348;32;33708;-69
2022/06/02 03:25:20;;;;;;;6.05;3.80;;;;;;;17.62;67.39;99898.09;4354685;32;34200;-69
2022/06/02 03:28:14;;;;;;;6.30;4.10;;;;;;;17.77;67.34;99891.59;4340408;32;34453;-66
2022/06/02 03:30:44;;;;;;;4.05;3.33;;;;;;;17.94;67.03;99915.84;4340398;32;33749;-66
2022/06/02 03:33:22;;;;;;;4.93;3.30;;;;;;;17.78;67.77;99917.94;4353099;32;33735;-66
2022/06/02 03:36:09;;;;;;;5.28;3.42;;;;;;;17.51;68.89;99902.87;4339541;32;34676;-67
2022/06/02 03:38:53;;;;;;;4.68;3.85;;;;;;;17.42;69.58;99899.12;4334399;33;32932;-66
2022/06/02 03:41:35;;;;;;;5.15;3.30;;;;;;;17.08;71.03;99885.50;4334350;33;33577;-66
2022/06/02 03:44:11;;;;;;;4.50;3.15;;;;;;;17.30;70.84;99871.28;4347781;33;34057;-66
2022/06/02 03:46:57;;;;;;;5.35;3.80;;;;;;;17.07;71.67;99868.22;4347830;33;34961;-67
2022/06/02 03:49:47;;;;;;;4.78;3.42;;;;;;;17.12;71.38;99851.72;4348021;33;34345;-68
2022/06/02 03:52:20;;;;;;;5.62;3.85;;;;;;;17.09;71.73;99846.03;4347373;33;33706;-68
2022/06/02 03:55:19;;;;;;;5.47;3.55;;;;;;;17.00;72.36;99834.88;4347774;33;34791;-68
2022/06/02 03:58:03;;;;;;;7.28;3.37;;;;;;;17.42;70.89;99819.59;4334529;33;34188;-69
2022/06/02 04:00:43;;;;;;;5.10;3.80;;;;;;;17.65;70.46;99815.19;4347546;33;34210;-65
2022/06/02 04:03:43;;;;;;;6.53;3.70;;;;;;;17.72;70.43;99817.59;4349342;32;33700;-70
2022/06/02 04:06:30;;;;;;;9.13;3.97;;;;;;;17.76;70.65;99813.94;4346480;32;34721;-67
2022/06/02 04:09:43;;;;;;;6.70;3.78;;;;;;;18.02;70.27;99832.84;4362227;32;34184;-66
2022/06/02 04:15:29;;;;;;;5.53;3.65;;;;;;;17.95;70.15;99855.19;4347469;33;34387;-67
2022/06/02 04:18:14;;;;;;;6.47;4.03;;;;;;;17.68;71.43;99844.78;4349890;33;33805;-67
2022/06/02 04:20:44;;;;;;;5.35;3.87;;;;;;;18.13;70.01;99856.28;4352432;33;34689;-68
2022/06/02 04:23:22;;;;;;;5.45;3.42;;;;;;;18.09;70.08;99866.22;4352083;33;35034;-68
2022/06/02 04:25:56;;;;;;;4.90;3.83;;;;;;;18.22;69.14;99868.22;4350953;33;34567;-68
2022/06/02 04:28:33;;;;;;;5.60;3.55;;;;;;;18.14;69.82;99855.19;4352363;33;34622;-68
2022/06/02 04:31:25;;;;;;;5.75;3.33;;;;;;;17.88;70.87;99862.94;4352308;33;35109;-67
2022/06/02 04:34:16;;;;;;;4.53;3.40;;;;;;;17.27;73.05;99847.19;4352015;33;34053;-68
2022/06/02 04:36:52;;;;;;;6.50;3.72;;;;;;;17.46;72.74;99848.06;4351127;33;33698;-68
2022/06/02 04:39:27;;;;;;;4.90;3.28;;;;;;;17.72;72.44;99848.56;4339274;33;33897;-68
2022/06/02 04:42:23;;;;;;;4.95;4.07;;;;;;;17.29;74.97;99856.75;4338915;33;34863;-68
2022/06/02 04:44:57;;;;;;;;;;;;;;;18.08;72.20;99867.34;4352128;33;34843;-68
2022/06/02 04:48:03;;;;;;;5.35;3.30;;;;;;;18.27;71.60;99870.09;4351085;33;33419;-68
2022/06/02 04:50:49;;;;;;;5.10;3.70;;;;;;;18.57;70.57;99871.56;4346219;33;34706;-67
2022/06/02 04:53:47;;;;;;;4.87;3.20;;;;;;;18.39;71.21;99872.41;4351878;33;34077;-73
2022/06/02 04:57:08;;;;;;;4.95;4.03;;;;;;;18.18;72.15;99872.69;4351970;33;34124;-68
2022/06/02 04:59:46;;;;;;;6.47;3.50;;;;;;;17.75;74.12;99858.97;4305759;33;33671;-68
2022/06/02 05:02:23;;;;;;;4.35;3.65;;;;;;;17.22;77.01;99854.38;4354275;32;33989;-64
2022/06/02 05:04:56;;;;;;;4.75;3.58;;;;;;;17.24;77.16;99854.09;4351166;32;33968;-67
2022/06/02 05:07:55;;;;;;;5.20;3.40;;;;;;;17.59;75.77;99860.28;4361366;32;33955;-70
2022/06/02 05:10:43;;;;;;;5.70;4.05;;;;;;;17.86;75.17;99872.59;4364788;32;32661;-68
2022/06/02 05:13:48;;;;;;;4.82;3.80;;;;;;;18.13;74.44;99882.94;4347325;32;34429;-66
2022/06/02 05:16:32;;;;;;;7.00;3.90;;;;;;;18.58;72.64;99883.38;4365212;32;34181;-75
2022/06/02 05:19:06;;;;;;;4.80;3.53;;;;;;;18.58;71.91;99884.19;4364612;32;34731;-68
2022/06/02 05:21:56;;;;;;;5.28;3.85;;;;;;;18.63;71.40;99878.59;4364634;32;33560;-69
2022/06/02 05:24:51;;;;;;;5.30;3.70;;;;;;;18.80;70.71;99883.59;4365038;32;34534;-68
2022/06/02 05:27:37;;;;;;;6.47;4.12;;;;;;;18.71;71.10;99884.56;4361215;32;34276;-70
2022/06/02 05:30:33;;;;;;;5.20;3.62;;;;;;;18.50;72.40;99897.78;4356116;32;34510;-69
2022/06/02 05:33:28;;;;;;;5.45;3.60;;;;;;;18.44;72.78;99900.63;4362354;32;34273;-69
2022/06/02 05:35:59;;;;;;;4.90;3.72;;;;;;;18.32;74.00;99896.69;4353699;32;34751;-68
2022/06/02 05:38:47;;;;;;;4.82;3.70;;;;;;;18.35;74.35;99902.37;4361207;32;34190;-70
2022/06/02 05:41:31;;;;;;;6.75;4.03;;;;;;;18.48;74.05;99902.75;4358155;32;33951;-71
2022/06/02 05:43:59;;;;;;;5.47;4.07;;;;;;;18.14;75.18;99915.59;4362191;32;33462;-69
2022/06/02 05:46:45;;;;;;;5.90;3.90;;;;;;;17.75;75.88;99915.78;4361808;32;33972;-69
2022/06/02 05:49:34;;;;;;;6.32;3.78;;;;;;;17.79;76.17;99920.38;4361846;32;34384;-69
2022/06/02 05:52:23;;;;;;;5.30;4.07;;;;;;;18.81;72.30;99917.37;4361723;32;34156;-70
2022/06/02 05:55:23;;;;;;;6.97;4.72;;;;;;;19.43;72.49;99915.19;4362258;32;34417;-70
2022/06/02 05:58:14;;;;;;;5.15;3.87;;;;;;;20.46;67.47;99922.19;4362153;32;34668;-69
2022/06/02 06:00:42;;;;;;;5.40;3.08;;;;;;;21.30;65.39;99912.44;4370935;32;34998;-69
2022/06/02 06:03:15;;;;;;;3.83;3.17;;;;;;;21.95;59.39;99923.94;4377735;32;34089;-71
2022/06/02 06:06:18;;;;;;;5.05;3.25;;;;;;;22.04;60.87;99935.81;4378101;32;34438;-70
2022/06/02 06:08:52;;;;;;;4.55;3.30;;;;;;;22.57;57.68;99928.47;4377834;32;34090;-69
2022/06/02 06:11:35;;;;;;;3.67;2.50;;;;;;;22.47;62.75;99921.28;4375418;32;34180;-68
2022/06/02 06:14:34;;;;;;;3.45;2.58;;;;;;;23.21;58.22;99921.44;4363162;32;34360;-68
2022/06/02 06:17:26;;;;;;;3.80;2.62;;;;;;;23.39;57.38;99923.03;4363134;32;34752;-69
2022/06/02 06:20:03;;;;;;;3.45;2.50;;;;;;;24.02;53.14;99928.78;4363050;32;34738;-65
2022/06/02 06:22:55;;;;;;;4.75;2.78;;;;;;;23.80;50.55;99918.81;4362694;32;34961;-67
2022/06/02 06:25:26;;;;;;;3.50;2.20;;;;;;;23.88;56.09;99919.91;4363075;32;34988;-66
2022/06/02 06:28:23;;;;;;;2.40;2.03;;;;;;;24.19;54.16;99922.34;4362315;32;33737;-69
2022/06/02 06:31:00;;;;;;;3.00;2.35;;;;;;;24.75;50.71;99924.84;4362940;32;34787;-67
2022/06/02 06:33:53;;;;;;;4.60;2.45;;;;;;;24.59;53.10;99937.75;4349492;32;33957;-67
2022/06/02 06:36:42;;;;;;;2.55;2.12;;;;;;;24.14;54.65;99941.91;4349451;32;35077;-69
2022/06/02 06:39:22;;;;;;;4.65;2.30;;;;;;;25.48;48.95;99937.38;4362918;32;34443;-67
2022/06/02 06:42:10;;;;;;;3.70;2.28;;;;;;;25.97;48.25;99945.81;4348795;32;33729;-67
2022/06/02 06:44:53;;;;;;;2.62;2.10;;;;;;;26.52;46.58;99951.88;4362981;32;34205;-68
2022/06/02 06:47:30;;;;;;;3.12;2.28;;;;;;;25.73;51.93;99952.94;4349618;32;34313;-67
2022/06/02 06:50:18;;;;;;;5.70;2.50;;;;;;;26.36;47.13;99965.69;4363017;32;33711;-70
2022/06/02 06:52:58;;;;;;;6.50;2.40;;;;;;;26.24;46.34;99960.16;4349408;32;33982;-68
2022/06/02 06:55:59;;;;;;;3.00;2.28;;;;;;;25.84;46.48;99958.84;4362742;32;35222;-71
2022/06/02 06:58:46;;;;;;;3.50;2.20;;;;;;;25.24;49.49;99957.59;4360023;32;35008;-69
2022/06/02 07:01:25;;;;;;;3.62;2.22;;;;;;;25.06;50.41;99956.94;4348530;32;33667;-71
2022/06/02 07:04:22;;;;;;;2.30;1.80;;;;;;;25.31;46.66;99957.84;4361272;32;34010;-67
2022/06/02 07:06:57;;;;;;;2.03;1.80;;;;;;;24.67;46.56;99964.59;4348302;32;34173;-67
2022/06/02 07:09:44;;;;;;;2.30;1.83;;;;;;;23.81;46.17;99963.94;4347742;32;34173;-68
2022/06/02 07:15:41;;;;;;;3.15;2.15;;;;;;;24.27;51.07;99965.00;4361746;32;34012;-69
2022/06/02 07:18:37;;;;;;;2.75;1.92;;;;;;;24.45;44.41;99968.47;4361749;32;34813;-68
2022/06/02 07:21:11;;;;;;;2.65;2.00;;;;;;;23.83;44.55;99964.44;4361662;32;34987;-68
2022/06/02 07:24:04;;;;;;;4.03;1.92;;;;;;;24.17;47.15;99969.00;4361740;32;33701;-75
2022/06/02 07:27:01;;;;;;;3.28;2.33;;;;;;;24.57;46.98;99971.34;4346827;32;33810;-66
2022/06/02 07:29:31;;;;;;;3.22;2.20;;;;;;;23.39;48.93;99970.09;4347909;32;34395;-70
2022/06/02 07:32:25;;;;;;;4.20;2.33;;;;;;;24.36;46.51;99960.22;4359366;32;33997;-71
2022/06/02 07:35:14;;;;;;;4.75;2.25;;;;;;;24.42;48.20;99958.06;4338695;32;34721;-68
2022/06/02 07:38:06;;;;;;;3.33;2.10;;;;;;;24.86;48.68;99964.09;4361400;32;33668;-69
2022/06/02 07:41:15;;;;;;;4.22;2.25;;;;;;;24.56;46.74;99965.00;4358706;32;33870;-68
2022/06/02 07:43:46;;;;;;;4.43;2.50;;;;;;;25.69;46.59;99959.53;4361252;32;34848;-67
2022/06/02 07:46:37;;;;;;;2.85;2.00;;;;;;;26.11;45.47;99959.34;4361196;32;33741;-70
2022/06/02 07:49:10;;;;;;;2.95;2.12;;;;;;;25.93;45.37;99975.47;4323116;32;33483;-70
2022/06/02 07:52:10;;;;;;;4.00;2.00;;;;;;;25.82;43.31;99975.06;4359693;32;34903;-69
2022/06/02 07:54:57;;;;;;;2.15;1.67;;;;;;;24.74;47.27;99971.22;4332257;32;32971;-71
2022/06/02 07:57:46;;;;;;;4.07;2.25;;;;;;;25.07;47.20;99964.91;4362245;32;33563;-68
2022/06/02 08:00:25;;;;;;;3.72;2.00;;;;;;;25.10;46.20;99964.22;4360414;32;33996;-71
2022/06/02 08:03:31;;;;;;;4.12;2.30;;;;;;;25.01;45.87;99966.28;4347060;32;35219;-67
2022/06/02 08:06:01;;;;;;;;;;;;;;;24.46;48.69;99970.09;4353040;32;34091;-70
2022/06/02 08:08:55;;;;;;;2.70;1.87;;;;;;;24.64;50.90;99973.59;4361963;32;34466;-68
2022/06/02 08:11:46;;;;;;;3.62;2.53;;;;;;;25.28;47.97;99976.00;4348302;32;33586;-68
2022/06/02 08:14:17;;;;;;;2.47;1.90;;;;;;;25.28;48.99;99983.53;4348695;32;34036;-68
2022/06/02 08:17:13;;;;;;;3.80;2.28;;;;;;;25.36;49.57;99977.87;4362127;32;34151;-68
2022/06/02 08:20:06;;;;;;;3.47;2.25;;;;;;;25.33;49.26;99978.53;4348837;32;34561;-70
2022/06/02 08:22:55;;;;;;;4.85;2.15;;;;;;;24.20;50.62;99984.94;4359677;32;34553;-68
2022/06/02 08:25:26;;;;;;;2.55;1.90;;;;;;;24.78;48.45;99979.69;4348305;32;35003;-68
2022/06/02 08:28:06;;;;;;;2.67;1.98;;;;;;;25.21;48.83;99977.72;4346993;32;34232;-69
2022/06/02 08:30:41;;;;;;;4.50;2.25;;;;;;;25.50;46.55;99985.09;4361941;32;33691;-70
2022/06/02 08:33:28;;;;;;;3.03;2.08;;;;;;;25.25;46.91;99968.38;4348547;32;34753;-69
2022/06/02 08:36:07;;;;;;;3.10;2.45;;;;;;;23.80;48.39;99984.47;4362128;32;34287;-69
2022/06/02 08:38:55;;;;;;;3.72;2.50;;;;;;;24.37;48.23;99981.25;4348019;32;34844;-70
2022/06/02 08:41:54;;;;;;;3.95;2.28;;;;;;;23.97;49.57;99989.12;4348871;32;33702;-69
2022/06/02 08:44:55;;;;;;;3.53;2.33;;;;;;;24.78;48.94;99971.37;4361694;32;34042;-69
2022/06/02 08:47:59;;;;;;;3.62;2.37;;;;;;;24.86;47.36;99987.16;4361746;32;34205;-68
2022/06/02 08:50:26;;;;;;;4.55;2.10;;;;;;;24.26;49.08;99983.59;4348392;32;34007;-70
2022/06/02 08:53:13;;;;;;;5.15;2.55;;;;;;;24.44;50.47;99989.84;4361825;32;33636;-74
2022/06/02 08:55:50;;;;;;;3.47;2.47;;;;;;;25.13;49.96;99999.63;4361735;32;33752;-69
2022/06/02 08:58:44;;;;;;;5.43;2.17;;;;;;;24.84;47.72;99983.91;4361407;32;34864;-67
2022/06/02 09:01:14;;;;;;;3.90;2.40;;;;;;;24.48;49.64;99990.00;4361697;32;34165;-68
2022/06/02 09:04:20;;;;;;;3.10;2.03;;;;;;;24.30;47.89;99984.56;4362504;32;33715;-69
2022/06/02 09:07:00;;;;;;;;;;;;;;;25.14;48.28;99989.31;4363836;32;34802;-70
2022/06/02 09:09:56;;;;;;;2.28;1.95;;;;;;;24.20;46.82;100001.56;4363396;32;35330;-69
2022/06/02 09:12:30;;;;;;;3.05;2.20;;;;;;;24.37;48.97;100007.03;4358185;32;34001;-69
2022/06/02 09:15:02;;;;;;;3.12;2.20;;;;;;;25.24;46.59;100004.78;4363740;32;33479;-70
2022/06/02 09:17:39;;;;;;;2.97;2.10;;;;;;;24.91;48.23;100002.78;4350077;32;33996;-68
2022/06/02 09:20:12;;;;;;;3.20;2.22;;;;;;;24.86;46.47;100011.28;4363674;32;34136;-71
2022/06/02 09:22:46;;;;;;;2.85;1.75;;;;;;;24.65;47.64;100016.84;4363119;32;34251;-68
2022/06/02 09:25:42;;;;;;;3.00;2.00;;;;;;;25.52;47.32;100011.38;4363288;32;33987;-68
2022/06/02 09:28:21;;;;;;;2.15;1.77;;;;;;;25.98;44.42;100003.00;4363131;32;33975;-69
2022/06/02 09:31:26;;;;;;;2.65;2.00;;;;;;;25.60;46.43;100008.84;4363537;32;34953;-68
2022/06/02 09:34:35;;;;;;;2.72;1.80;;;;;;;24.81;47.00;100017.84;4362377;32;34241;-70
2022/06/02 09:37:27;;;;;;;2.58;1.83;;;;;;;25.24;48.21;100015.91;4363565;32;33487;-70
2022/06/02 09:40:15;;;;;;;2.62;1.85;;;;;;;25.69;45.60;100012.34;4362392;32;34750;-69
2022/06/02 09:43:04;;;;;;;2.55;1.65;;;;;;;26.23;46.29;100020.53;4349764;32;34188;-70
2022/06/02 09:46:01;;;;;;;2.35;1.70;;;;;;;25.73;45.28;100021.62;4363434;32;34874;-70
2022/06/02 09:49:07;;;;;;;2.12;1.70;;;;;;;25.91;44.81;100025.03;4363565;32;34577;-70
2022/06/02 09:51:54;;;;;;;2.28;1.60;;;;;;;26.33;43.47;100013.69;4363383;32;34778;-70
2022/06/02 09:54:47;;;;;;;1.98;1.35;;;;;;;26.39;44.60;100018.69;4363382;32;34214;-70
2022/06/02 10:00:32;;;;;;;1.70;1.50;;;;;;;25.86;44.67;100003.00;4363584;32;34358;-68
2022/06/02 10:03:12;;;;;;;2.62;1.90;;;;;;;25.68;44.11;100002.38;4363440;32;34035;-69
2022/06/02 10:05:43;;;;;;;4.12;1.98;;;;;;;26.16;44.84;100000.84;4362846;32;34212;-69
2022/06/02 10:08:46;;;;;;;2.47;1.77;;;;;;;26.16;43.53;99998.88;4363335;32;34552;-68
2022/06/02 10:14:56;;;;;;;4.35;1.77;;;;;;;25.05;45.80;100000.50;4341135;32;33966;-69
2022/06/02 10:17:47;;;;;;;3.83;2.00;;;;;;;25.69;46.03;99993.69;4362881;32;33999;-69
2022/06/02 10:20:29;;;;;;;2.65;1.95;;;;;;;26.42;43.43;99997.69;4334227;32;34093;-69
2022/06/02 10:23:34;;;;;;;2.67;1.83;;;;;;;26.78;44.10;100010.75;4349718;32;33214;-69
2022/06/02 10:26:04;;;;;;;5.37;2.00;;;;;;;27.16;41.09;99995.53;4363001;32;34031;-68
2022/06/02 10:28:56;;;;;;;2.37;1.75;;;;;;;26.87;43.18;99998.66;4363331;32;34425;-68
2022/06/02 10:31:52;;;;;;;2.40;1.80;;;;;;;25.84;46.19;100008.88;4363343;32;34322;-68
2022/06/02 10:35:04;;;;;;;3.45;2.00;;;;;;;26.32;43.42;99998.97;4363102;32;33664;-70
2022/06/02 10:37:47;;;;;;;2.67;2.00;;;;;;;25.86;45.81;100000.22;4287502;33;34606;-70
2022/06/02 10:40:16;;;;;;;2.00;1.60;;;;;;;25.76;45.75;99999.47;4356877;32;34159;-70
2022/06/02 10:43:21;;;;;;;2.45;1.85;;;;;;;26.45;44.34;100004.53;4348010;32;33992;-69
2022/06/02 10:45:58;;;;;;;3.22;1.67;;;;;;;26.56;42.75;100000.13;4362899;32;33557;-70
2022/06/02 10:48:57;;;;;;;2.15;1.90;;;;;;;26.62;43.88;100003.50;4363239;32;33958;-68
2022/06/02 10:52:02;;;;;;;2.50;2.12;;;;;;;25.94;44.73;100005.69;4363350;32;34192;-69
2022/06/02 10:54:55;;;;;;;3.58;2.15;;;;;;;26.53;45.22;100009.97;4360405;32;81333;-69
2022/06/02 10:57:25;;;;;;;2.15;1.95;;;;;;;26.82;45.40;100010.03;4362894;32;34653;-69
2022/06/02 11:00:18;;;;;;;2.12;1.80;;;;;;;26.50;43.75;100012.63;4363048;32;34042;-69
2022/06/02 11:03:13;;;;;;;2.60;2.08;;;;;;;26.94;43.28;100010.81;4362864;32;34251;-69
2022/06/02 11:06:25;;;;;;;3.22;2.28;;;;;;;26.60;44.52;100010.19;4362993;32;33945;-68
2022/06/02 11:09:21;;;;;;;2.53;2.20;;;;;;;26.88;43.14;100003.88;4287492;33;32975;-70
2022/06/02 11:12:26;;;;;;;4.53;2.35;;;;;;;25.95;45.21;99996.19;4362545;32;34064;-68
2022/06/02 11:15:16;;;;;;;2.42;2.00;;;;;;;26.02;44.91;99994.81;4362941;32;34222;-69
2022/06/02 11:17:58;;;;;;;2.17;1.98;;;;;;;25.64;43.61;99999.47;4363012;32;34177;-68
2022/06/02 11:20:54;;;;;;;2.90;2.37;;;;;;;25.26;44.59;99994.16;4362863;32;33786;-69
2022/06/02 11:23:24;;;;;;;2.85;2.33;;;;;;;25.85;44.48;99999.38;4363305;32;34547;-71
2022/06/02 11:26:07;;;;;;;2.40;1.92;;;;;;;25.73;45.34;99991.03;4362350;32;34953;-69
2022/06/02 11:28:53;;;;;;;2.78;2.10;;;;;;;26.74;43.89;99995.91;4362332;32;34980;-69
2022/06/02 11:31:30;;;;;;;2.65;2.10;;;;;;;27.04;43.86;100003.97;4362833;32;33273;-68
2022/06/02 11:34:16;;;;;;;2.70;1.95;;;;;;;26.61;41.94;100005.47;4362937;32;34802;-68
2022/06/02 11:36:55;;;;;;;2.50;1.90;;;;;;;26.66;43.81;100008.00;4362719;32;34238;-69
2022/06/02 11:39:48;;;;;;;1.83;1.60;;;;;;;27.02;42.03;100006.28;4362788;32;34664;-69
2022/06/02 11:42:33;;;;;;;1.87;1.60;;;;;;;27.49;41.49;100011.19;4362728;32;34274;-69
2022/06/02 11:45:28;;;;;;;3.95;1.62;;;;;;;27.49;41.08;100015.97;4349222;32;33561;-69
2022/06/02 11:48:21;;;;;;;2.30;1.70;;;;;;;27.01;41.73;100015.78;4349162;32;34303;-69
2022/06/02 11:51:03;;;;;;;1.93;1.70;;;;;;;27.57;41.22;100007.44;4349454;32;34337;-72
2022/06/02 11:53:37;;;;;;;1.90;1.70;;;;;;;26.70;40.74;100013.69;4349265;32;34514;-69
2022/06/02 11:56:13;;;;;;;1.50;1.37;;;;;;;26.34;40.19;100006.97;4359780;32;33686;-69
2022/06/02 11:59:31;;;;;;;2.28;1.55;;;;;;;26.89;40.42;100018.59;4362276;32;34236;-68
2022/06/02 12:02:23;;;;;;;1.83;1.37;;;;;;;27.25;39.96;100009.34;4360241;32;34522;-72
2022/06/02 12:05:13;;;;;;;1.92;1.60;;;;;;;26.23;40.03;100003.84;4358301;32;34609;-74
2022/06/02 12:08:11;;;;;;;1.37;1.27;;;;;;;26.47;40.67;100010.56;4361234;32;34493;-72
2022/06/02 12:11:21;;;;;;;1.30;1.20;;;;;;;26.65;39.31;100013.91;4360833;32;34089;-68
2022/06/02 12:14:04;;;;;;;1.60;1.25;;;;;;;26.65;37.88;100000.78;4324728;32;34477;-66
2022/06/02 12:16:53;;;;;;;1.58;1.25;;;;;;;27.42;38.63;100013.78;4360834;32;33716;-72
2022/06/02 12:19:32;;;;;;;1.90;1.33;;;;;;;27.29;37.52;100006.66;4347295;32;34690;-66
2022/06/02 12:22:20;;;;;;;2.22;1.37;;;;;;;26.35;39.99;100009.41;4360533;32;34994;-67
2022/06/02 12:24:53;;;;;;;1.20;1.10;;;;;;;26.15;39.38;100004.75;4346583;32;34697;-67
2022/06/02 12:27:30;;;;;;;2.05;1.42;;;;;;;26.27;40.37;100006.75;4360903;32;33422;-67
2022/06/02 12:30:24;;;;;;;1.30;1.10;;;;;;;26.64;39.24;100017.88;4360057;32;34707;-68
2022/06/02 12:32:58;;;;;;;2.70;1.27;;;;;;;27.54;37.81;100018.50;4347347;32;34239;-66
2022/06/02 12:35:25;;;;;;;;;;;;;;;27.67;36.45;100020.03;4360356;32;35013;-68
2022/06/02 12:38:05;;;;;;;1.02;0.95;;;;;;;28.14;35.50;100024.03;4361286;32;33460;-67
2022/06/02 12:40:43;;;;;;;0.82;0.82;;;;;;;28.68;32.16;100023.34;4362302;32;34664;-66
2022/06/02 12:43:29;;;;;;;1.10;1.00;;;;;;;27.05;35.11;100027.84;4349203;32;34232;-67
2022/06/02 12:46:24;;;;;;;0.98;0.90;;;;;;;27.76;34.81;100025.44;4362393;32;34299;-71
2022/06/02 12:49:38;;;;;;;0.88;0.88;;;;;;;27.45;34.91;100028.97;4348612;32;34152;-68
2022/06/02 12:52:27;;;;;;;0.80;0.80;;;;;;;27.94;34.50;100029.53;4347133;33;34067;-69
2022/06/02 12:55:52;;;;;;;0.98;0.93;;;;;;;27.70;31.73;100024.09;4355089;32;34788;-67
2022/06/02 12:58:29;;;;;;;1.10;1.00;;;;;;;27.31;34.43;100026.63;4300783;33;34950;-66
2022/06/02 13:01:14;;;;;;;1.30;1.15;;;;;;;27.66;34.92;100031.53;4301338;33;33483;-66
2022/06/02 13:04:07;;;;;;;0.90;0.90;;;;;;;26.50;34.81;100024.59;4341151;32;34746;-68
2022/06/02 13:07:04;;;;;;;1.30;1.17;;;;;;;27.39;35.16;100029.25;4358264;32;34211;-67
2022/06/02 13:09:48;;;;;;;1.02;0.93;;;;;;;27.60;35.97;100029.03;4362123;32;33808;-67
2022/06/02 13:12:24;;;;;;;1.10;1.00;;;;;;;27.72;35.42;100024.53;4362218;32;33432;-71
2022/06/02 13:14:57;;;;;;;1.52;1.10;;;;;;;28.07;35.27;100026.66;4362298;32;34754;-67
2022/06/02 13:17:43;;;;;;;1.05;0.90;;;;;;;27.41;34.89;100021.34;4362203;32;34692;-67